Airport View

Enter AWOS ICAO identifier for current METAR.

ex. KFNL

KGDB 112236Z AUTO 10006KT 7SM BKN080 OVC120 M15/M19 A3040 RMK AO2 T11501191

11 Dec 2019 23:04

Frequency: 120.1

Phone: 320-564-9388

Other Area AWOS: KMVE - KMML - KOVL - KRWF

TAF KRWF 111729Z 1118/1218 20004KT P6SM SCT110 FM112100 13006KT P6SM SCT050 BKN090 FM120900 12008KT P6SM -SN SCT008 OVC015 PROB30 1210/1214 3SM -SN BR FM121500 02006KT 4SM BR OVC008